sensor_id;sensor_type;location;lat;lon;timestamp;P1;durP1;ratioP1;P2;durP2;ratioP2
59960;SDS011;55902;-37.980;-63.602;2023-01-24T00:00:41;2.10;;;0.80;;
59960;SDS011;55902;-37.980;-63.602;2023-01-24T00:03:08;2.28;;;0.98;;
59960;SDS011;55902;-37.980;-63.602;2023-01-24T00:05:42;1.50;;;0.70;;
59960;SDS011;55902;-37.980;-63.602;2023-01-24T00:08:11;5.30;;;0.70;;
59960;SDS011;55902;-37.980;-63.602;2023-01-24T00:10:40;2.78;;;0.70;;
59960;SDS011;55902;-37.980;-63.602;2023-01-24T00:13:09;2.65;;;0.93;;
59960;SDS011;55902;-37.980;-63.602;2023-01-24T00:15:37;2.42;;;0.80;;
59960;SDS011;55902;-37.980;-63.602;2023-01-24T00:18:04;1.70;;;0.70;;
59960;SDS011;55902;-37.980;-63.602;2023-01-24T00:20:31;4.80;;;1.00;;
59960;SDS011;55902;-37.980;-63.602;2023-01-24T00:22:59;2.45;;;1.10;;
59960;SDS011;55902;-37.980;-63.602;2023-01-24T00:25:25;3.65;;;0.95;;
59960;SDS011;55902;-37.980;-63.602;2023-01-24T00:27:52;3.40;;;1.10;;
59960;SDS011;55902;-37.980;-63.602;2023-01-24T00:30:19;2.83;;;0.95;;
59960;SDS011;55902;-37.980;-63.602;2023-01-24T00:32:47;3.85;;;1.13;;
59960;SDS011;55902;-37.980;-63.602;2023-01-24T00:35:13;5.35;;;1.67;;
59960;SDS011;55902;-37.980;-63.602;2023-01-24T00:37:40;2.13;;;0.90;;
59960;SDS011;55902;-37.980;-63.602;2023-01-24T00:40:08;3.00;;;1.00;;
59960;SDS011;55902;-37.980;-63.602;2023-01-24T00:42:35;2.83;;;0.80;;
59960;SDS011;55902;-37.980;-63.602;2023-01-24T00:45:02;3.55;;;1.00;;
59960;SDS011;55902;-37.980;-63.602;2023-01-24T00:47:29;4.25;;;1.30;;
59960;SDS011;55902;-37.980;-63.602;2023-01-24T00:49:56;5.07;;;1.20;;
59960;SDS011;55902;-37.980;-63.602;2023-01-24T00:55:46;3.10;;;0.85;;
59960;SDS011;55902;-37.980;-63.602;2023-01-24T00:58:14;7.50;;;1.40;;
59960;SDS011;55902;-37.980;-63.602;2023-01-24T01:00:41;3.83;;;1.30;;
59960;SDS011;55902;-37.980;-63.602;2023-01-24T01:03:12;2.90;;;1.27;;
59960;SDS011;55902;-37.980;-63.602;2023-01-24T01:05:44;6.05;;;1.30;;
59960;SDS011;55902;-37.980;-63.602;2023-01-24T01:08:15;9.40;;;1.63;;
59960;SDS011;55902;-37.980;-63.602;2023-01-24T01:10:43;3.67;;;1.50;;
59960;SDS011;55902;-37.980;-63.602;2023-01-24T01:13:11;2.50;;;1.10;;
59960;SDS011;55902;-37.980;-63.602;2023-01-24T01:15:38;2.17;;;1.00;;
59960;SDS011;55902;-37.980;-63.602;2023-01-24T01:18:05;4.72;;;1.00;;
59960;SDS011;55902;-37.980;-63.602;2023-01-24T01:20:32;3.25;;;1.40;;
59960;SDS011;55902;-37.980;-63.602;2023-01-24T01:22:59;4.60;;;1.42;;
59960;SDS011;55902;-37.980;-63.602;2023-01-24T01:25:26;5.72;;;1.50;;
59960;SDS011;55902;-37.980;-63.602;2023-01-24T01:27:53;2.47;;;1.10;;
59960;SDS011;55902;-37.980;-63.602;2023-01-24T01:30:20;2.78;;;1.10;;
59960;SDS011;55902;-37.980;-63.602;2023-01-24T01:32:47;3.97;;;1.40;;
59960;SDS011;55902;-37.980;-63.602;2023-01-24T01:35:14;3.45;;;1.30;;
59960;SDS011;55902;-37.980;-63.602;2023-01-24T01:37:41;3.88;;;1.42;;
59960;SDS011;55902;-37.980;-63.602;2023-01-24T01:40:08;6.97;;;1.50;;
59960;SDS011;55902;-37.980;-63.602;2023-01-24T01:42:48;4.95;;;1.20;;
59960;SDS011;55902;-37.980;-63.602;2023-01-24T01:50:39;4.18;;;1.80;;
59960;SDS011;55902;-37.980;-63.602;2023-01-24T01:53:11;3.60;;;2.30;;
59960;SDS011;55902;-37.980;-63.602;2023-01-24T01:55:40;3.80;;;2.00;;
59960;SDS011;55902;-37.980;-63.602;2023-01-24T01:58:12;3.95;;;1.90;;
59960;SDS011;55902;-37.980;-63.602;2023-01-24T02:00:40;3.85;;;1.50;;
59960;SDS011;55902;-37.980;-63.602;2023-01-24T02:03:15;4.18;;;1.45;;
59960;SDS011;55902;-37.980;-63.602;2023-01-24T02:06:03;3.95;;;1.30;;
59960;SDS011;55902;-37.980;-63.602;2023-01-24T02:08:32;3.78;;;1.15;;
59960;SDS011;55902;-37.980;-63.602;2023-01-24T02:10:59;2.00;;;1.02;;
59960;SDS011;55902;-37.980;-63.602;2023-01-24T02:13:45;5.10;;;0.90;;
59960;SDS011;55902;-37.980;-63.602;2023-01-24T02:16:12;3.50;;;1.00;;
59960;SDS011;55902;-37.980;-63.602;2023-01-24T02:18:41;2.78;;;0.90;;
59960;SDS011;55902;-37.980;-63.602;2023-01-24T02:21:15;1.50;;;0.77;;
59960;SDS011;55902;-37.980;-63.602;2023-01-24T02:26:24;3.83;;;0.90;;
59960;SDS011;55902;-37.980;-63.602;2023-01-24T02:28:57;3.85;;;0.80;;
59960;SDS011;55902;-37.980;-63.602;2023-01-24T02:34:21;2.88;;;0.90;;
59960;SDS011;55902;-37.980;-63.602;2023-01-24T02:36:52;3.17;;;1.00;;
59960;SDS011;55902;-37.980;-63.602;2023-01-24T02:39:32;3.00;;;1.00;;
59960;SDS011;55902;-37.980;-63.602;2023-01-24T02:42:12;2.45;;;1.20;;
59960;SDS011;55902;-37.980;-63.602;2023-01-24T02:47:29;4.18;;;1.50;;
59960;SDS011;55902;-37.980;-63.602;2023-01-24T02:49:59;3.63;;;1.70;;
59960;SDS011;55902;-37.980;-63.602;2023-01-24T02:52:26;6.20;;;2.17;;
59960;SDS011;55902;-37.980;-63.602;2023-01-24T02:55:12;8.35;;;3.83;;
59960;SDS011;55902;-37.980;-63.602;2023-01-24T02:57:39;13.82;;;7.65;;
59960;SDS011;55902;-37.980;-63.602;2023-01-24T03:00:24;15.20;;;8.55;;
59960;SDS011;55902;-37.980;-63.602;2023-01-24T03:02:51;8.82;;;3.80;;
59960;SDS011;55902;-37.980;-63.602;2023-01-24T03:05:22;17.15;;;7.50;;
59960;SDS011;55902;-37.980;-63.602;2023-01-24T03:07:49;18.70;;;8.52;;
59960;SDS011;55902;-37.980;-63.602;2023-01-24T03:10:17;14.68;;;6.57;;
59960;SDS011;55902;-37.980;-63.602;2023-01-24T03:22:50;4.20;;;1.52;;
59960;SDS011;55902;-37.980;-63.602;2023-01-24T03:25:35;2.42;;;1.13;;
59960;SDS011;55902;-37.980;-63.602;2023-01-24T03:28:20;2.35;;;0.82;;
59960;SDS011;55902;-37.980;-63.602;2023-01-24T03:31:06;1.55;;;0.80;;
59960;SDS011;55902;-37.980;-63.602;2023-01-24T03:33:51;2.25;;;0.80;;
59960;SDS011;55902;-37.980;-63.602;2023-01-24T03:36:36;1.77;;;0.60;;
59960;SDS011;55902;-37.980;-63.602;2023-01-24T03:39:03;2.55;;;0.80;;
59960;SDS011;55902;-37.980;-63.602;2023-01-24T03:41:48;1.83;;;0.70;;
59960;SDS011;55902;-37.980;-63.602;2023-01-24T03:44:14;3.65;;;0.90;;
59960;SDS011;55902;-37.980;-63.602;2023-01-24T03:46:41;4.70;;;0.80;;
59960;SDS011;55902;-37.980;-63.602;2023-01-24T03:49:08;2.28;;;0.60;;
59960;SDS011;55902;-37.980;-63.602;2023-01-24T03:51:35;2.50;;;0.70;;
59960;SDS011;55902;-37.980;-63.602;2023-01-24T03:54:20;3.88;;;0.80;;
59960;SDS011;55902;-37.980;-63.602;2023-01-24T03:56:47;3.08;;;0.77;;
59960;SDS011;55902;-37.980;-63.602;2023-01-24T03:59:14;3.05;;;0.80;;
59960;SDS011;55902;-37.980;-63.602;2023-01-24T04:01:41;1.88;;;0.70;;
59960;SDS011;55902;-37.980;-63.602;2023-01-24T04:04:08;3.45;;;1.15;;
59960;SDS011;55902;-37.980;-63.602;2023-01-24T04:06:37;4.57;;;1.00;;
59960;SDS011;55902;-37.980;-63.602;2023-01-24T04:09:03;1.98;;;0.80;;
59960;SDS011;55902;-37.980;-63.602;2023-01-24T04:11:30;2.40;;;0.80;;
59960;SDS011;55902;-37.980;-63.602;2023-01-24T04:13:57;3.15;;;0.70;;
59960;SDS011;55902;-37.980;-63.602;2023-01-24T04:16:24;3.35;;;0.70;;
59960;SDS011;55902;-37.980;-63.602;2023-01-24T04:18:51;5.78;;;0.73;;
59960;SDS011;55902;-37.980;-63.602;2023-01-24T04:21:18;2.08;;;0.80;;
59960;SDS011;55902;-37.980;-63.602;2023-01-24T04:23:45;2.45;;;0.90;;
59960;SDS011;55902;-37.980;-63.602;2023-01-24T04:26:12;2.28;;;1.02;;
59960;SDS011;55902;-37.980;-63.602;2023-01-24T04:28:39;2.33;;;0.82;;
59960;SDS011;55902;-37.980;-63.602;2023-01-24T04:31:06;3.65;;;0.80;;
59960;SDS011;55902;-37.980;-63.602;2023-01-24T04:33:34;2.15;;;0.70;;
59960;SDS011;55902;-37.980;-63.602;2023-01-24T04:36:01;4.93;;;0.90;;
59960;SDS011;55902;-37.980;-63.602;2023-01-24T04:38:28;2.63;;;0.93;;
59960;SDS011;55902;-37.980;-63.602;2023-01-24T04:40:58;2.90;;;0.85;;
59960;SDS011;55902;-37.980;-63.602;2023-01-24T04:43:27;6.05;;;0.98;;
59960;SDS011;55902;-37.980;-63.602;2023-01-24T04:45:54;6.35;;;0.90;;
59960;SDS011;55902;-37.980;-63.602;2023-01-24T04:48:22;5.13;;;0.80;;
59960;SDS011;55902;-37.980;-63.602;2023-01-24T04:50:49;3.60;;;1.05;;
59960;SDS011;55902;-37.980;-63.602;2023-01-24T04:53:19;3.10;;;1.00;;
59960;SDS011;55902;-37.980;-63.602;2023-01-24T04:55:46;4.82;;;0.90;;
59960;SDS011;55902;-37.980;-63.602;2023-01-24T04:58:13;3.97;;;0.90;;
59960;SDS011;55902;-37.980;-63.602;2023-01-24T05:00:40;2.45;;;0.80;;
59960;SDS011;55902;-37.980;-63.602;2023-01-24T05:03:07;1.42;;;0.85;;
59960;SDS011;55902;-37.980;-63.602;2023-01-24T05:05:34;2.75;;;0.88;;
59960;SDS011;55902;-37.980;-63.602;2023-01-24T05:08:01;3.50;;;1.00;;
59960;SDS011;55902;-37.980;-63.602;2023-01-24T05:10:28;3.28;;;1.00;;
59960;SDS011;55902;-37.980;-63.602;2023-01-24T05:12:55;2.25;;;0.82;;
59960;SDS011;55902;-37.980;-63.602;2023-01-24T05:15:22;2.63;;;1.00;;
59960;SDS011;55902;-37.980;-63.602;2023-01-24T05:17:49;4.60;;;1.20;;
59960;SDS011;55902;-37.980;-63.602;2023-01-24T05:20:16;4.68;;;1.17;;
59960;SDS011;55902;-37.980;-63.602;2023-01-24T05:22:43;1.92;;;1.30;;
59960;SDS011;55902;-37.980;-63.602;2023-01-24T05:25:13;4.47;;;1.35;;
59960;SDS011;55902;-37.980;-63.602;2023-01-24T05:27:41;3.28;;;1.50;;
59960;SDS011;55902;-37.980;-63.602;2023-01-24T05:30:08;2.97;;;1.10;;
59960;SDS011;55902;-37.980;-63.602;2023-01-24T05:32:36;5.20;;;1.23;;
59960;SDS011;55902;-37.980;-63.602;2023-01-24T05:35:03;4.38;;;1.58;;
59960;SDS011;55902;-37.980;-63.602;2023-01-24T05:37:31;5.55;;;1.50;;
59960;SDS011;55902;-37.980;-63.602;2023-01-24T05:39:58;10.30;;;1.98;;
59960;SDS011;55902;-37.980;-63.602;2023-01-24T05:42:25;6.82;;;1.52;;
59960;SDS011;55902;-37.980;-63.602;2023-01-24T05:54:56;2.53;;;1.15;;
59960;SDS011;55902;-37.980;-63.602;2023-01-24T05:57:23;2.95;;;1.20;;
59960;SDS011;55902;-37.980;-63.602;2023-01-24T05:59:50;4.70;;;1.30;;
59960;SDS011;55902;-37.980;-63.602;2023-01-24T06:02:17;5.60;;;1.20;;
59960;SDS011;55902;-37.980;-63.602;2023-01-24T06:04:47;2.38;;;1.20;;
59960;SDS011;55902;-37.980;-63.602;2023-01-24T06:07:14;1.55;;;1.20;;
59960;SDS011;55902;-37.980;-63.602;2023-01-24T06:09:41;2.65;;;1.20;;
59960;SDS011;55902;-37.980;-63.602;2023-01-24T06:12:07;2.58;;;1.33;;
59960;SDS011;55902;-37.980;-63.602;2023-01-24T06:14:34;2.67;;;1.10;;
59960;SDS011;55902;-37.980;-63.602;2023-01-24T06:17:01;2.72;;;1.23;;
59960;SDS011;55902;-37.980;-63.602;2023-01-24T06:19:28;3.78;;;1.10;;
59960;SDS011;55902;-37.980;-63.602;2023-01-24T06:21:59;2.80;;;1.30;;
59960;SDS011;55902;-37.980;-63.602;2023-01-24T06:24:50;1.42;;;1.10;;
59960;SDS011;55902;-37.980;-63.602;2023-01-24T06:27:17;1.90;;;1.20;;
59960;SDS011;55902;-37.980;-63.602;2023-01-24T06:29:44;2.10;;;1.20;;
59960;SDS011;55902;-37.980;-63.602;2023-01-24T06:34:55;4.55;;;1.48;;
59960;SDS011;55902;-37.980;-63.602;2023-01-24T06:37:48;7.15;;;1.42;;
59960;SDS011;55902;-37.980;-63.602;2023-01-24T06:40:20;4.28;;;1.42;;
59960;SDS011;55902;-37.980;-63.602;2023-01-24T06:42:49;2.08;;;1.30;;
59960;SDS011;55902;-37.980;-63.602;2023-01-24T06:55:21;8.43;;;1.35;;
59960;SDS011;55902;-37.980;-63.602;2023-01-24T06:57:55;10.90;;;1.40;;
59960;SDS011;55902;-37.980;-63.602;2023-01-24T07:00:26;4.43;;;1.30;;
59960;SDS011;55902;-37.980;-63.602;2023-01-24T07:03:02;7.25;;;1.38;;
59960;SDS011;55902;-37.980;-63.602;2023-01-24T07:05:35;20.85;;;1.70;;
59960;SDS011;55902;-37.980;-63.602;2023-01-24T07:08:03;17.40;;;1.60;;
59960;SDS011;55902;-37.980;-63.602;2023-01-24T07:10:31;10.35;;;1.40;;
59960;SDS011;55902;-37.980;-63.602;2023-01-24T07:12:58;6.13;;;1.02;;
59960;SDS011;55902;-37.980;-63.602;2023-01-24T07:15:25;5.50;;;0.90;;
59960;SDS011;55902;-37.980;-63.602;2023-01-24T07:17:52;6.32;;;0.80;;
59960;SDS011;55902;-37.980;-63.602;2023-01-24T07:20:20;3.25;;;1.02;;
59960;SDS011;55902;-37.980;-63.602;2023-01-24T07:22:48;2.20;;;0.80;;
59960;SDS011;55902;-37.980;-63.602;2023-01-24T07:25:17;8.70;;;1.00;;
59960;SDS011;55902;-37.980;-63.602;2023-01-24T07:27:46;2.83;;;0.90;;
59960;SDS011;55902;-37.980;-63.602;2023-01-24T07:30:13;1.17;;;0.80;;
59960;SDS011;55902;-37.980;-63.602;2023-01-24T07:32:40;1.90;;;0.90;;
59960;SDS011;55902;-37.980;-63.602;2023-01-24T07:35:07;1.73;;;0.90;;
59960;SDS011;55902;-37.980;-63.602;2023-01-24T07:37:35;2.47;;;1.00;;
59960;SDS011;55902;-37.980;-63.602;2023-01-24T07:40:02;1.42;;;1.00;;
59960;SDS011;55902;-37.980;-63.602;2023-01-24T07:42:30;2.15;;;0.93;;
59960;SDS011;55902;-37.980;-63.602;2023-01-24T07:44:56;1.98;;;0.90;;
59960;SDS011;55902;-37.980;-63.602;2023-01-24T07:47:24;1.15;;;0.80;;
59960;SDS011;55902;-37.980;-63.602;2023-01-24T07:49:53;1.58;;;0.80;;
59960;SDS011;55902;-37.980;-63.602;2023-01-24T07:52:20;1.25;;;0.80;;
59960;SDS011;55902;-37.980;-63.602;2023-01-24T07:54:46;2.17;;;0.95;;
59960;SDS011;55902;-37.980;-63.602;2023-01-24T07:57:13;1.90;;;0.90;;
59960;SDS011;55902;-37.980;-63.602;2023-01-24T07:59:41;1.65;;;0.80;;
59960;SDS011;55902;-37.980;-63.602;2023-01-24T08:02:09;2.05;;;1.00;;
59960;SDS011;55902;-37.980;-63.602;2023-01-24T08:04:37;1.30;;;1.00;;
59960;SDS011;55902;-37.980;-63.602;2023-01-24T08:07:04;1.45;;;0.90;;
59960;SDS011;55902;-37.980;-63.602;2023-01-24T08:09:48;1.30;;;0.90;;
59960;SDS011;55902;-37.980;-63.602;2023-01-24T08:12:16;2.13;;;1.10;;
59960;SDS011;55902;-37.980;-63.602;2023-01-24T08:14:43;2.10;;;1.00;;
59960;SDS011;55902;-37.980;-63.602;2023-01-24T08:20:32;2.05;;;1.15;;
59960;SDS011;55902;-37.980;-63.602;2023-01-24T08:23:00;2.30;;;1.00;;
59960;SDS011;55902;-37.980;-63.602;2023-01-24T08:25:27;3.53;;;1.10;;
59960;SDS011;55902;-37.980;-63.602;2023-01-24T08:27:55;2.63;;;1.20;;
59960;SDS011;55902;-37.980;-63.602;2023-01-24T08:34:03;2.70;;;1.23;;
59960;SDS011;55902;-37.980;-63.602;2023-01-24T08:36:31;1.80;;;1.25;;
59960;SDS011;55902;-37.980;-63.602;2023-01-24T08:38:57;1.95;;;1.48;;
59960;SDS011;55902;-37.980;-63.602;2023-01-24T08:41:24;2.72;;;1.40;;
59960;SDS011;55902;-37.980;-63.602;2023-01-24T08:43:51;4.55;;;1.33;;
59960;SDS011;55902;-37.980;-63.602;2023-01-24T08:46:18;2.38;;;1.30;;
59960;SDS011;55902;-37.980;-63.602;2023-01-24T08:48:45;2.40;;;1.50;;
59960;SDS011;55902;-37.980;-63.602;2023-01-24T08:51:12;3.60;;;1.40;;
59960;SDS011;55902;-37.980;-63.602;2023-01-24T08:53:39;2.38;;;1.45;;
59960;SDS011;55902;-37.980;-63.602;2023-01-24T08:56:06;1.83;;;1.20;;
59960;SDS011;55902;-37.980;-63.602;2023-01-24T08:58:33;2.55;;;1.30;;
59960;SDS011;55902;-37.980;-63.602;2023-01-24T09:01:04;2.20;;;1.40;;
59960;SDS011;55902;-37.980;-63.602;2023-01-24T09:03:35;2.63;;;1.42;;
59960;SDS011;55902;-37.980;-63.602;2023-01-24T09:06:03;2.30;;;1.30;;
59960;SDS011;55902;-37.980;-63.602;2023-01-24T09:08:30;2.45;;;1.20;;
59960;SDS011;55902;-37.980;-63.602;2023-01-24T09:10:58;2.90;;;1.17;;
59960;SDS011;55902;-37.980;-63.602;2023-01-24T09:13:26;1.50;;;1.20;;
59960;SDS011;55902;-37.980;-63.602;2023-01-24T09:15:53;2.03;;;1.30;;
59960;SDS011;55902;-37.980;-63.602;2023-01-24T09:18:20;4.40;;;1.30;;
59960;SDS011;55902;-37.980;-63.602;2023-01-24T09:20:47;2.17;;;1.45;;
59960;SDS011;55902;-37.980;-63.602;2023-01-24T09:23:14;3.40;;;1.50;;
59960;SDS011;55902;-37.980;-63.602;2023-01-24T09:25:50;2.97;;;1.60;;
59960;SDS011;55902;-37.980;-63.602;2023-01-24T09:28:18;3.22;;;1.90;;
59960;SDS011;55902;-37.980;-63.602;2023-01-24T09:30:49;4.50;;;1.85;;
59960;SDS011;55902;-37.980;-63.602;2023-01-24T09:33:16;3.83;;;1.70;;
59960;SDS011;55902;-37.980;-63.602;2023-01-24T09:35:57;2.20;;;1.67;;
59960;SDS011;55902;-37.980;-63.602;2023-01-24T09:38:32;3.03;;;1.67;;
59960;SDS011;55902;-37.980;-63.602;2023-01-24T09:44:03;3.35;;;2.30;;
59960;SDS011;55902;-37.980;-63.602;2023-01-24T09:46:57;4.00;;;2.30;;
59960;SDS011;55902;-37.980;-63.602;2023-01-24T09:49:46;4.65;;;1.90;;
59960;SDS011;55902;-37.980;-63.602;2023-01-24T09:52:30;2.70;;;1.77;;
59960;SDS011;55902;-37.980;-63.602;2023-01-24T09:57:50;3.25;;;1.98;;
59960;SDS011;55902;-37.980;-63.602;2023-01-24T10:00:33;4.67;;;1.90;;
59960;SDS011;55902;-37.980;-63.602;2023-01-24T10:03:08;4.97;;;2.35;;
59960;SDS011;55902;-37.980;-63.602;2023-01-24T10:05:52;2.22;;;1.60;;
59960;SDS011;55902;-37.980;-63.602;2023-01-24T10:08:45;2.67;;;1.50;;
59960;SDS011;55902;-37.980;-63.602;2023-01-24T10:20:07;1.88;;;1.33;;
59960;SDS011;55902;-37.980;-63.602;2023-01-24T10:31:28;3.35;;;1.60;;
59960;SDS011;55902;-37.980;-63.602;2023-01-24T10:34:10;2.03;;;1.38;;
59960;SDS011;55902;-37.980;-63.602;2023-01-24T10:36:51;2.03;;;1.40;;
59960;SDS011;55902;-37.980;-63.602;2023-01-24T10:39:23;2.60;;;1.45;;
59960;SDS011;55902;-37.980;-63.602;2023-01-24T10:41:55;2.33;;;1.60;;
59960;SDS011;55902;-37.980;-63.602;2023-01-24T10:44:28;2.20;;;1.50;;
59960;SDS011;55902;-37.980;-63.602;2023-01-24T10:50:12;2.35;;;1.50;;
59960;SDS011;55902;-37.980;-63.602;2023-01-24T10:52:41;2.97;;;1.50;;
59960;SDS011;55902;-37.980;-63.602;2023-01-24T10:55:34;2.58;;;1.50;;
59960;SDS011;55902;-37.980;-63.602;2023-01-24T10:58:26;2.25;;;1.63;;
59960;SDS011;55902;-37.980;-63.602;2023-01-24T11:01:04;1.70;;;1.40;;
59960;SDS011;55902;-37.980;-63.602;2023-01-24T11:03:38;2.75;;;1.50;;
59960;SDS011;55902;-37.980;-63.602;2023-01-24T11:06:09;1.85;;;1.60;;
59960;SDS011;55902;-37.980;-63.602;2023-01-24T11:09:08;2.50;;;1.45;;
59960;SDS011;55902;-37.980;-63.602;2023-01-24T11:11:41;2.55;;;1.45;;
59960;SDS011;55902;-37.980;-63.602;2023-01-24T11:14:28;3.55;;;1.60;;
59960;SDS011;55902;-37.980;-63.602;2023-01-24T11:17:01;2.30;;;1.40;;
59960;SDS011;55902;-37.980;-63.602;2023-01-24T11:19:56;2.13;;;1.45;;
59960;SDS011;55902;-37.980;-63.602;2023-01-24T11:22:29;2.05;;;1.48;;
59960;SDS011;55902;-37.980;-63.602;2023-01-24T11:25:01;3.10;;;1.40;;
59960;SDS011;55902;-37.980;-63.602;2023-01-24T11:27:30;3.22;;;1.50;;
59960;SDS011;55902;-37.980;-63.602;2023-01-24T11:30:19;2.13;;;1.40;;
59960;SDS011;55902;-37.980;-63.602;2023-01-24T11:36:03;1.98;;;1.42;;
59960;SDS011;55902;-37.980;-63.602;2023-01-24T11:38:43;2.47;;;1.48;;
59960;SDS011;55902;-37.980;-63.602;2023-01-24T12:03:08;2.22;;;1.25;;
59960;SDS011;55902;-37.980;-63.602;2023-01-24T12:05:54;2.40;;;1.30;;
59960;SDS011;55902;-37.980;-63.602;2023-01-24T12:08:51;2.60;;;1.20;;
59960;SDS011;55902;-37.980;-63.602;2023-01-24T12:11:26;2.42;;;1.05;;
59960;SDS011;55902;-37.980;-63.602;2023-01-24T12:22:49;1.65;;;1.00;;
59960;SDS011;55902;-37.980;-63.602;2023-01-24T12:25:38;1.38;;;1.02;;
59960;SDS011;55902;-37.980;-63.602;2023-01-24T12:28:11;2.20;;;1.23;;
59960;SDS011;55902;-37.980;-63.602;2023-01-24T12:30:49;3.30;;;1.15;;
59960;SDS011;55902;-37.980;-63.602;2023-01-24T12:39:02;1.80;;;0.90;;
59960;SDS011;55902;-37.980;-63.602;2023-01-24T12:41:41;1.40;;;0.90;;
59960;SDS011;55902;-37.980;-63.602;2023-01-24T12:55:40;1.85;;;0.90;;
59960;SDS011;55902;-37.980;-63.602;2023-01-24T12:58:15;2.28;;;0.80;;
59960;SDS011;55902;-37.980;-63.602;2023-01-24T13:03:58;2.00;;;0.80;;
59960;SDS011;55902;-37.980;-63.602;2023-01-24T13:12:38;1.33;;;0.70;;
59960;SDS011;55902;-37.980;-63.602;2023-01-24T13:18:01;1.38;;;0.80;;
59960;SDS011;55902;-37.980;-63.602;2023-01-24T13:34:33;1.75;;;0.90;;
59960;SDS011;55902;-37.980;-63.602;2023-01-24T13:37:06;5.05;;;1.05;;
59960;SDS011;55902;-37.980;-63.602;2023-01-24T13:39:40;2.92;;;1.00;;
59960;SDS011;55902;-37.980;-63.602;2023-01-24T13:42:35;3.53;;;0.90;;
59960;SDS011;55902;-37.980;-63.602;2023-01-24T13:47:57;2.25;;;0.70;;
59960;SDS011;55902;-37.980;-63.602;2023-01-24T13:50:26;1.70;;;0.70;;
59960;SDS011;55902;-37.980;-63.602;2023-01-24T13:52:58;1.30;;;0.70;;
59960;SDS011;55902;-37.980;-63.602;2023-01-24T13:58:17;1.98;;;0.90;;
59960;SDS011;55902;-37.980;-63.602;2023-01-24T14:00:49;2.33;;;0.70;;
59960;SDS011;55902;-37.980;-63.602;2023-01-24T14:03:21;2.20;;;1.10;;
59960;SDS011;55902;-37.980;-63.602;2023-01-24T14:06:03;4.30;;;3.40;;
59960;SDS011;55902;-37.980;-63.602;2023-01-24T14:08:40;3.27;;;1.60;;
59960;SDS011;55902;-37.980;-63.602;2023-01-24T14:11:30;1.98;;;1.30;;
59960;SDS011;55902;-37.980;-63.602;2023-01-24T14:14:02;1.95;;;1.10;;
59960;SDS011;55902;-37.980;-63.602;2023-01-24T14:16:59;2.00;;;1.30;;
59960;SDS011;55902;-37.980;-63.602;2023-01-24T14:19:32;3.17;;;0.90;;
59960;SDS011;55902;-37.980;-63.602;2023-01-24T14:27:48;3.15;;;0.93;;
59960;SDS011;55902;-37.980;-63.602;2023-01-24T14:42:03;3.80;;;0.80;;
59960;SDS011;55902;-37.980;-63.602;2023-01-24T14:44:49;4.10;;;0.90;;
59960;SDS011;55902;-37.980;-63.602;2023-01-24T14:47:21;2.80;;;0.85;;
59960;SDS011;55902;-37.980;-63.602;2023-01-24T14:49:57;2.58;;;1.10;;
59960;SDS011;55902;-37.980;-63.602;2023-01-24T14:52:31;4.10;;;1.00;;
59960;SDS011;55902;-37.980;-63.602;2023-01-24T15:00:59;3.72;;;1.55;;
59960;SDS011;55902;-37.980;-63.602;2023-01-24T15:03:32;2.95;;;0.93;;
59960;SDS011;55902;-37.980;-63.602;2023-01-24T15:06:04;2.45;;;0.98;;
59960;SDS011;55902;-37.980;-63.602;2023-01-24T15:08:36;3.10;;;0.80;;
59960;SDS011;55902;-37.980;-63.602;2023-01-24T15:11:10;2.70;;;0.90;;
59960;SDS011;55902;-37.980;-63.602;2023-01-24T15:13:48;4.18;;;1.40;;
59960;SDS011;55902;-37.980;-63.602;2023-01-24T15:16:24;2.47;;;0.90;;
59960;SDS011;55902;-37.980;-63.602;2023-01-24T15:21:57;2.92;;;0.85;;
59960;SDS011;55902;-37.980;-63.602;2023-01-24T15:24:28;1.30;;;0.88;;
59960;SDS011;55902;-37.980;-63.602;2023-01-24T15:26:57;2.10;;;0.80;;
59960;SDS011;55902;-37.980;-63.602;2023-01-24T15:32:19;1.83;;;0.68;;
59960;SDS011;55902;-37.980;-63.602;2023-01-24T15:44:10;1.58;;;0.70;;
59960;SDS011;55902;-37.980;-63.602;2023-01-24T15:46:41;1.50;;;0.80;;
59960;SDS011;55902;-37.980;-63.602;2023-01-24T15:49:36;2.50;;;1.17;;
59960;SDS011;55902;-37.980;-63.602;2023-01-24T15:54:42;27.02;;;2.70;;
59960;SDS011;55902;-37.980;-63.602;2023-01-24T15:57:17;16.23;;;2.50;;
59960;SDS011;55902;-37.980;-63.602;2023-01-24T15:59:49;11.80;;;2.30;;
59960;SDS011;55902;-37.980;-63.602;2023-01-24T16:02:20;18.35;;;2.35;;
59960;SDS011;55902;-37.980;-63.602;2023-01-24T16:04:47;27.15;;;2.72;;
59960;SDS011;55902;-37.980;-63.602;2023-01-24T16:07:15;16.00;;;2.20;;
59960;SDS011;55902;-37.980;-63.602;2023-01-24T16:09:47;18.27;;;2.10;;
59960;SDS011;55902;-37.980;-63.602;2023-01-24T16:12:15;15.93;;;2.08;;
59960;SDS011;55902;-37.980;-63.602;2023-01-24T16:14:46;14.05;;;2.05;;
59960;SDS011;55902;-37.980;-63.602;2023-01-24T16:17:18;15.10;;;1.70;;
59960;SDS011;55902;-37.980;-63.602;2023-01-24T16:19:47;10.63;;;2.33;;
59960;SDS011;55902;-37.980;-63.602;2023-01-24T16:22:14;9.85;;;1.80;;
59960;SDS011;55902;-37.980;-63.602;2023-01-24T16:24:42;9.00;;;1.70;;
59960;SDS011;55902;-37.980;-63.602;2023-01-24T16:27:10;9.30;;;1.70;;
59960;SDS011;55902;-37.980;-63.602;2023-01-24T16:29:39;9.13;;;1.33;;
59960;SDS011;55902;-37.980;-63.602;2023-01-24T16:32:21;8.57;;;1.30;;
59960;SDS011;55902;-37.980;-63.602;2023-01-24T16:34:51;14.55;;;1.80;;
59960;SDS011;55902;-37.980;-63.602;2023-01-24T16:37:18;11.82;;;1.60;;
59960;SDS011;55902;-37.980;-63.602;2023-01-24T16:39:45;13.57;;;1.80;;
59960;SDS011;55902;-37.980;-63.602;2023-01-24T16:42:17;7.18;;;1.40;;
59960;SDS011;55902;-37.980;-63.602;2023-01-24T16:44:57;7.65;;;1.38;;
59960;SDS011;55902;-37.980;-63.602;2023-01-24T16:47:26;8.35;;;1.40;;
59960;SDS011;55902;-37.980;-63.602;2023-01-24T16:49:54;10.07;;;1.30;;
59960;SDS011;55902;-37.980;-63.602;2023-01-24T16:52:23;12.55;;;1.52;;
59960;SDS011;55902;-37.980;-63.602;2023-01-24T16:54:51;8.68;;;1.20;;
59960;SDS011;55902;-37.980;-63.602;2023-01-24T16:57:19;11.95;;;1.27;;
59960;SDS011;55902;-37.980;-63.602;2023-01-24T16:59:46;10.52;;;1.35;;
59960;SDS011;55902;-37.980;-63.602;2023-01-24T17:02:13;8.15;;;1.40;;
59960;SDS011;55902;-37.980;-63.602;2023-01-24T17:04:41;7.38;;;0.98;;
59960;SDS011;55902;-37.980;-63.602;2023-01-24T17:07:08;8.95;;;1.10;;
59960;SDS011;55902;-37.980;-63.602;2023-01-24T17:09:35;7.20;;;1.42;;
59960;SDS011;55902;-37.980;-63.602;2023-01-24T17:12:02;7.70;;;1.10;;
59960;SDS011;55902;-37.980;-63.602;2023-01-24T17:14:29;5.78;;;0.90;;
59960;SDS011;55902;-37.980;-63.602;2023-01-24T17:16:59;5.10;;;1.00;;
59960;SDS011;55902;-37.980;-63.602;2023-01-24T17:19:26;8.50;;;1.23;;
59960;SDS011;55902;-37.980;-63.602;2023-01-24T17:21:53;6.90;;;1.00;;
59960;SDS011;55902;-37.980;-63.602;2023-01-24T17:24:20;6.18;;;0.95;;
59960;SDS011;55902;-37.980;-63.602;2023-01-24T17:26:50;5.22;;;0.95;;
59960;SDS011;55902;-37.980;-63.602;2023-01-24T17:29:17;5.57;;;0.85;;
59960;SDS011;55902;-37.980;-63.602;2023-01-24T17:31:48;5.18;;;0.90;;
59960;SDS011;55902;-37.980;-63.602;2023-01-24T17:34:19;6.93;;;0.90;;
59960;SDS011;55902;-37.980;-63.602;2023-01-24T17:36:46;5.28;;;1.08;;
59960;SDS011;55902;-37.980;-63.602;2023-01-24T17:39:13;2.85;;;0.73;;
59960;SDS011;55902;-37.980;-63.602;2023-01-24T17:41:40;5.07;;;0.80;;
59960;SDS011;55902;-37.980;-63.602;2023-01-24T17:44:07;3.10;;;0.80;;
59960;SDS011;55902;-37.980;-63.602;2023-01-24T17:46:34;2.80;;;0.60;;
59960;SDS011;55902;-37.980;-63.602;2023-01-24T17:49:04;3.45;;;0.70;;
59960;SDS011;55902;-37.980;-63.602;2023-01-24T17:51:31;3.78;;;0.93;;
59960;SDS011;55902;-37.980;-63.602;2023-01-24T17:54:02;5.28;;;1.00;;
59960;SDS011;55902;-37.980;-63.602;2023-01-24T17:56:29;4.93;;;0.90;;
59960;SDS011;55902;-37.980;-63.602;2023-01-24T17:58:59;5.90;;;0.90;;